Time;durP1;ratioP1;P1;durP2;ratioP2;P2;SDS_P1;SDS_P2;PMS_P1;PMS_P2;Temp;Humidity;BMP_temperature;BMP_pressure;BME280_temperature;BME280_humidity;BME280_pressure;Samples;Min_cycle;Max_cycle;Signal;HPM_P1;HPM_P2
2023/09/06 00:01:12;;;;;;;9.07;3.33;;;;;;;;;;6247334;22;20355;-71
2023/09/06 00:03:38;;;;;;;5.55;3.00;;;;;;;;;;6272810;22;20019;-71
2023/09/06 00:06:06;;;;;;;4.28;3.15;;;18.30;99.90;;;;;;6272811;22;20068;-71
2023/09/06 00:08:34;;;;;;;7.93;3.55;;;;;;;;;;6299375;22;20022;-71
2023/09/06 00:11:04;;;;;;;8.00;3.55;;;18.60;99.90;;;;;;6298874;22;20019;-71
2023/09/06 00:13:33;;;;;;;6.78;3.67;;;18.30;99.90;;;;;;6272597;22;20015;-72
2023/09/06 00:16:03;;;;;;;5.07;3.45;;;18.50;99.90;;;;;;6300213;22;20015;-71
2023/09/06 00:18:29;;;;;;;4.95;3.90;;;;;;;;;;6271357;22;20011;-72
2023/09/06 00:20:57;;;;;;;7.20;3.20;;;18.60;99.90;;;;;;6299557;22;20022;-71
2023/09/06 00:23:24;;;;;;;4.72;3.10;;;18.50;99.90;;;;;;6298831;22;20359;-71
2023/09/06 00:25:50;;;;;;;7.90;3.60;;;;;;;;;;6272182;22;20166;-71
2023/09/06 00:28:19;;;;;;;5.18;3.42;;;18.40;99.90;;;;;;6272328;22;20585;-72
2023/09/06 00:30:45;;;;;;;4.22;3.42;;;;;;;;;;6300231;22;20015;-71
2023/09/06 00:33:11;;;;;;;4.95;3.15;;;18.60;99.90;;;;;;6272103;22;20026;-71
2023/09/06 00:35:39;;;;;;;5.55;3.22;;;18.60;99.90;;;;;;6271927;22;20023;-71
2023/09/06 00:38:05;;;;;;;5.15;3.28;;;;;;;;;;6299236;22;20011;-72
2023/09/06 00:40:36;;;;;;;4.25;3.17;;;18.70;99.90;;;;;;6272511;22;20047;-71
2023/09/06 00:43:02;;;;;;;6.18;3.10;;;;;;;;;;6272518;22;20011;-71
2023/09/06 00:45:33;;;;;;;5.63;3.83;;;18.60;99.90;;;;;;6272458;22;20692;-71
2023/09/06 00:48:01;;;;;;;5.25;2.88;;;;;;;;;;6271880;22;20015;-71
2023/09/06 00:50:27;;;;;;;5.20;3.38;;;;;;;;;;6272317;22;20049;-71
2023/09/06 00:52:53;;;;;;;7.60;3.13;;;;;;;;;;6300406;22;20019;-71
2023/09/06 00:55:20;;;;;;;5.15;3.58;;;18.80;99.90;;;;;;6299234;22;20072;-71
2023/09/06 00:57:46;;;;;;;6.70;3.60;;;18.80;99.90;;;;;;6246009;22;20023;-71
2023/09/06 01:00:17;;;;;;;5.13;3.17;;;;;;;;;;6271634;22;20060;-71
2023/09/06 01:02:42;;;;;;;6.28;3.20;;;18.70;99.90;;;;;;6300046;22;20022;-71
2023/09/06 01:05:08;;;;;;;8.18;3.25;;;18.60;99.90;;;;;;6298932;22;20015;-71
2023/09/06 01:07:35;;;;;;;5.97;3.00;;;;;;;;;;6271287;22;20019;-71
2023/09/06 01:10:03;;;;;;;5.07;3.15;;;18.60;99.90;;;;;;6272223;22;20019;-71
2023/09/06 01:12:29;;;;;;;4.65;3.00;;;;;;;;;;6299771;22;20557;-71
2023/09/06 01:14:55;;;;;;;6.13;2.53;;;;;;;;;;6299319;22;20733;-71
2023/09/06 01:17:24;;;;;;;6.43;2.95;;;18.60;99.90;;;;;;6299520;22;20007;-71
2023/09/06 01:19:57;;;;;;;5.00;3.47;;;18.40;99.90;;;;;;6272129;22;20459;-71
2023/09/06 01:22:38;;;;;;;4.63;3.30;;;18.40;99.90;;;;;;6298661;22;20069;-71
2023/09/06 01:25:04;;;;;;;4.05;3.40;;;18.50;99.90;;;;;;6299956;22;20348;-71
2023/09/06 01:27:30;;;;;;;5.13;3.65;;;;;;;;;;6300523;22;20023;-71
2023/09/06 01:29:57;;;;;;;4.25;3.58;;;18.50;99.90;;;;;;6272050;22;20470;-71
2023/09/06 01:32:24;;;;;;;5.97;3.55;;;;;;;;;;6272006;22;20069;-71
2023/09/06 01:34:49;;;;;;;11.77;3.72;;;18.50;99.90;;;;;;6299495;22;20019;-71
2023/09/06 01:37:15;;;;;;;10.25;3.75;;;;;;;;;;6299881;22;20096;-71
2023/09/06 01:39:41;;;;;;;5.40;3.63;;;18.50;99.90;;;;;;6299157;22;20016;-72
2023/09/06 01:42:06;;;;;;;4.57;3.65;;;18.40;99.90;;;;;;6299727;22;20046;-72
2023/09/06 01:44:32;;;;;;;5.53;3.33;;;18.70;99.90;;;;;;6299115;22;20026;-72
2023/09/06 01:46:58;;;;;;;5.60;3.65;;;;;;;;;;6271327;22;20090;-71
2023/09/06 01:49:23;;;;;;;5.03;3.75;;;18.30;99.90;;;;;;6299722;22;20015;-71
2023/09/06 01:51:49;;;;;;;6.15;3.60;;;;;;;;;;6271956;22;20227;-71
2023/09/06 01:54:16;;;;;;;5.78;3.78;;;18.10;99.90;;;;;;6299333;22;20023;-71
2023/09/06 01:56:42;;;;;;;6.38;4.20;;;18.10;99.90;;;;;;6271985;22;20011;-71
2023/09/06 01:59:07;;;;;;;4.13;2.97;;;18.00;99.90;;;;;;6299064;22;20019;-71
2023/09/06 02:01:33;;;;;;;4.40;3.13;;;;;;;;;;6271838;22;20332;-71
2023/09/06 02:04:01;;;;;;;5.30;3.33;;;17.40;99.90;;;;;;6271564;22;20026;-72
2023/09/06 02:06:26;;;;;;;3.83;2.95;;;17.10;99.90;;;;;;6299186;22;20076;-71
2023/09/06 02:08:52;;;;;;;5.40;3.17;;;;;;;;;;6299198;22;20055;-71
2023/09/06 02:11:19;;;;;;;4.72;3.35;;;;;;;;;;6299363;22;20065;-71
2023/09/06 02:13:45;;;;;;;5.13;3.35;;;;;;;;;;6271205;22;20322;-71
2023/09/06 02:16:12;;;;;;;6.10;3.60;;;16.70;99.90;;;;;;6298959;22;20026;-71
2023/09/06 02:18:37;;;;;;;5.68;4.20;;;16.90;99.90;;;;;;6271708;22;20534;-71
2023/09/06 02:21:03;;;;;;;7.53;3.45;;;16.90;99.90;;;;;;6271840;22;20022;-71
2023/09/06 02:23:29;;;;;;;6.57;4.18;;;;;;;;;;6271937;22;20019;-71
2023/09/06 02:25:56;;;;;;;4.65;3.70;;;;;;;;;;6271727;22;20025;-71
2023/09/06 02:28:22;;;;;;;5.32;4.10;;;16.70;99.90;;;;;;6299188;22;20084;-72
2023/09/06 02:30:47;;;;;;;6.57;4.22;;;16.80;99.90;;;;;;6299414;22;20451;-71
2023/09/06 02:33:14;;;;;;;6.78;4.05;;;;;;;;;;6271774;22;20023;-71
2023/09/06 02:35:44;;;;;;;4.88;3.95;;;16.70;99.90;;;;;;6272018;22;20095;-71
2023/09/06 02:38:11;;;;;;;5.35;4.07;;;16.90;99.90;;;;;;6272465;22;20331;-71
2023/09/06 02:40:40;;;;;;;6.35;4.35;;;16.80;99.90;;;;;;6300282;22;20351;-71
2023/09/06 02:43:06;;;;;;;6.65;4.60;;;16.90;99.90;;;;;;6272363;22;20021;-71
2023/09/06 02:45:38;;;;;;;5.63;4.00;;;16.80;99.90;;;;;;6272327;22;20351;-71
2023/09/06 02:48:12;;;;;;;5.45;4.15;;;16.90;99.90;;;;;;6299969;22;20094;-71
2023/09/06 02:50:39;;;;;;;6.87;3.80;;;16.90;99.90;;;;;;6300509;22;20011;-71
2023/09/06 02:53:15;;;;;;;7.63;4.68;;;;;;;;;;6272391;22;20023;-71
2023/09/06 02:55:41;;;;;;;6.80;4.45;;;17.00;99.90;;;;;;6299845;22;20015;-71
2023/09/06 02:58:10;;;;;;;5.65;4.53;;;;;;;;;;6271829;22;20766;-71
2023/09/06 03:00:40;;;;;;;7.15;4.13;;;;;;;;;;6271440;22;20030;-71
2023/09/06 03:03:06;;;;;;;7.15;4.63;;;;;;;;;;6299822;22;20011;-71
2023/09/06 03:05:34;;;;;;;9.90;5.18;;;17.30;99.90;;;;;;6271419;22;20085;-71
2023/09/06 03:08:00;;;;;;;6.95;4.05;;;17.30;99.90;;;;;;6272116;22;20443;-72
2023/09/06 03:10:27;;;;;;;7.25;4.20;;;;;;;;;;6299635;22;20026;-71
2023/09/06 03:12:57;;;;;;;6.45;5.00;;;17.60;99.90;;;;;;6272099;22;20347;-71
2023/09/06 03:15:28;;;;;;;6.90;4.70;;;17.40;99.90;;;;;;6272289;22;20019;-71
2023/09/06 03:17:54;;;;;;;7.53;4.68;;;;;;;;;;6272030;22;20016;-71
2023/09/06 03:20:32;;;;;;;5.50;4.50;;;17.60;99.90;;;;;;6299707;22;20009;-72
2023/09/06 03:23:02;;;;;;;8.43;4.47;;;17.50;99.90;;;;;;6299621;22;20021;-71
2023/09/06 03:25:28;;;;;;;9.80;4.35;;;17.50;99.90;;;;;;6298909;22;20065;-71
2023/09/06 03:28:00;;;;;;;9.35;5.10;;;17.70;99.90;;;;;;6299210;22;20011;-71
2023/09/06 03:30:30;;;;;;;7.90;4.65;;;17.50;99.90;;;;;;6299087;22;20026;-71
2023/09/06 03:32:57;;;;;;;8.15;4.60;;;17.40;99.90;;;;;;6299039;22;20022;-71
2023/09/06 03:35:23;;;;;;;9.35;6.25;;;;;;;;;;6271401;22;20298;-71
2023/09/06 03:37:52;;;;;;;6.68;4.32;;;17.50;99.90;;;;;;6298952;22;20019;-71
2023/09/06 03:40:37;;;;;;;8.73;5.15;;;;;;;;;;6271368;22;20019;-71
2023/09/06 03:43:14;;;;;;;8.80;5.13;;;17.40;99.90;;;;;;6271737;22;20320;-71
2023/09/06 03:45:44;;;;;;;6.28;3.90;;;17.40;99.90;;;;;;6271230;22;20025;-71
2023/09/06 03:48:12;;;;;;;7.90;5.20;;;17.50;99.90;;;;;;6299146;22;20026;-71
2023/09/06 03:50:38;;;;;;;7.78;5.68;;;;;;;;;;6271144;22;20096;-71
2023/09/06 03:53:05;;;;;;;7.32;5.25;;;;;;;;;;6271936;22;20015;-71
2023/09/06 03:55:34;;;;;;;6.22;4.43;;;17.40;99.90;;;;;;6271529;22;20030;-71
2023/09/06 03:58:07;;;;;;;6.43;4.80;;;;;;;;;;6271190;22;20038;-71
2023/09/06 04:00:33;;;;;;;8.13;5.20;;;17.60;99.90;;;;;;6271478;22;20376;-71
2023/09/06 04:02:59;;;;;;;6.32;5.05;;;;;;;;;;6299341;22;20011;-71
2023/09/06 04:05:26;;;;;;;5.75;5.07;;;17.40;99.90;;;;;;6271236;22;20673;-72
2023/09/06 04:07:57;;;;;;;8.60;5.07;;;17.40;99.90;;;;;;6298938;22;20025;-71
2023/09/06 04:10:36;;;;;;;5.90;4.70;;;17.40;99.90;;;;;;6298909;22;20015;-72
2023/09/06 04:13:02;;;;;;;5.97;4.68;;;;;;;;;;6271721;22;20011;-71
2023/09/06 04:15:29;;;;;;;7.40;5.30;;;17.30;99.90;;;;;;6270866;22;20082;-71
2023/09/06 04:17:59;;;;;;;6.47;5.03;;;17.50;99.90;;;;;;6271758;22;20015;-71
2023/09/06 04:20:27;;;;;;;8.57;6.18;;;;;;;;;;6271632;22;20084;-71
2023/09/06 04:22:54;;;;;;;8.15;5.15;;;17.40;99.90;;;;;;6298989;22;20019;-71
2023/09/06 04:25:22;;;;;;;11.32;4.88;;;;;;;;;;6299015;22;20015;-71
2023/09/06 04:27:54;;;;;;;6.07;4.80;;;17.30;99.90;;;;;;6298983;22;20051;-71
2023/09/06 04:30:20;;;;;;;7.35;4.63;;;;;;;;;;6301296;22;20011;-71
2023/09/06 04:32:46;;;;;;;9.60;5.18;;;;;;;;;;6273590;22;20446;-71
2023/09/06 04:35:15;;;;;;;10.20;5.05;;;17.40;99.90;;;;;;6300242;22;20011;-71
2023/09/06 04:37:41;;;;;;;7.93;5.25;;;17.60;99.90;;;;;;6300833;22;20320;-71
2023/09/06 04:40:11;;;;;;;6.40;4.78;;;17.30;99.90;;;;;;6301206;22;20110;-71
2023/09/06 04:42:39;;;;;;;6.90;5.03;;;;;;;;;;6272810;22;20100;-71
2023/09/06 04:45:09;;;;;;;6.35;5.38;;;17.10;99.90;;;;;;6273126;22;20030;-71
2023/09/06 04:47:35;;;;;;;7.97;4.82;;;17.30;99.90;;;;;;6300948;22;20015;-72
2023/09/06 04:50:01;;;;;;;7.38;5.20;;;;;;;;;;6300565;22;20030;-71
2023/09/06 04:52:27;;;;;;;7.13;4.35;;;;;;;;;;6300940;22;20474;-71
2023/09/06 04:54:53;;;;;;;7.47;4.90;;;17.00;99.90;;;;;;6300730;22;20055;-72
2023/09/06 04:57:19;;;;;;;10.07;4.78;;;;;;;;;;6272875;22;20015;-71
2023/09/06 04:59:45;;;;;;;5.57;4.68;;;;;;;;;;6273190;22;20019;-71
2023/09/06 05:02:11;;;;;;;7.40;4.70;;;;;;;;;;6272782;22;20046;-72
2023/09/06 05:04:37;;;;;;;6.15;4.90;;;16.90;99.90;;;;;;6300592;22;20054;-71
2023/09/06 05:07:05;;;;;;;7.75;5.07;;;16.90;99.90;;;;;;6272977;22;20019;-71
2023/09/06 05:09:32;;;;;;;6.28;4.75;;;17.00;99.90;;;;;;6300675;22;20025;-71
2023/09/06 05:11:57;;;;;;;8.82;5.53;;;;;;;;;;6273038;22;20422;-71
2023/09/06 05:14:23;;;;;;;6.35;4.93;;;;;;;;;;6300286;22;20049;-71
2023/09/06 05:16:49;;;;;;;5.82;4.38;;;;;;;;;;6247593;22;20046;-71
2023/09/06 05:19:15;;;;;;;7.70;4.75;;;;;;;;;;6272407;22;20080;-71
2023/09/06 05:21:41;;;;;;;9.02;4.97;;;16.90;99.90;;;;;;6272918;22;20019;-71
2023/09/06 05:24:06;;;;;;;8.52;4.55;;;17.00;99.90;;;;;;6272659;22;20034;-71
2023/09/06 05:26:36;;;;;;;8.25;4.68;;;;;;;;;;6300467;22;20655;-71
2023/09/06 05:29:04;;;;;;;7.65;4.93;;;;;;;;;;6299857;22;20373;-71
2023/09/06 05:31:30;;;;;;;6.07;4.05;;;;;;;;;;6300515;22;20085;-71
2023/09/06 05:33:56;;;;;;;6.07;4.53;;;;;;;;;;6272218;22;20026;-71
2023/09/06 05:36:22;;;;;;;6.50;5.10;;;;;;;;;;6300247;22;20030;-71
2023/09/06 05:38:48;;;;;;;8.70;4.80;;;;;;;;;;6272226;22;20073;-71
2023/09/06 05:41:14;;;;;;;6.53;4.95;;;17.20;99.90;;;;;;6272044;22;20019;-72
2023/09/06 05:43:39;;;;;;;5.97;4.93;;;17.50;99.90;;;;;;6300052;22;20042;-71
2023/09/06 05:46:05;;;;;;;8.40;4.68;;;;;;;;;;6272732;22;20496;-71
2023/09/06 05:48:31;;;;;;;8.90;4.40;;;;;;;;;;6300126;22;20062;-72
2023/09/06 05:50:57;;;;;;;7.25;5.18;;;17.70;99.90;;;;;;6300295;22;20094;-71
2023/09/06 05:53:24;;;;;;;6.38;4.78;;;;;;;;;;6272262;22;20686;-71
2023/09/06 05:55:50;;;;;;;7.93;3.92;;;17.90;99.90;;;;;;6272306;22;20019;-71
2023/09/06 05:58:16;;;;;;;9.88;4.13;;;;;;;;;;6299598;22;20012;-71
2023/09/06 06:00:42;;;;;;;8.27;4.13;;;17.90;99.90;;;;;;6299835;22;20070;-71
2023/09/06 06:03:07;;;;;;;11.48;4.72;;;18.00;99.90;;;;;;6300056;22;20026;-71
2023/09/06 06:05:33;;;;;;;5.60;4.57;;;18.20;99.90;;;;;;6271710;22;20036;-71
2023/09/06 06:07:59;;;;;;;5.90;4.43;;;;;;;;;;6299936;22;20386;-72
2023/09/06 06:10:29;;;;;;;8.30;3.90;;;18.50;99.90;;;;;;6272284;22;20027;-71
2023/09/06 06:12:54;;;;;;;8.38;3.97;;;19.10;99.90;;;;;;6300069;22;20019;-71
2023/09/06 06:15:20;;;;;;;6.18;3.75;;;19.20;99.90;;;;;;6271871;22;20034;-72
2023/09/06 06:17:46;;;;;;;5.50;3.88;;;;;;;;;;6272180;22;20065;-71
2023/09/06 06:20:11;;;;;;;6.07;3.47;;;19.60;99.90;;;;;;6272303;22;20018;-72
2023/09/06 06:22:38;;;;;;;4.43;3.85;;;;;;;;;;6271973;22;20019;-71
2023/09/06 06:25:08;;;;;;;6.65;3.70;;;19.90;99.90;;;;;;6271853;22;20050;-71
2023/09/06 06:27:34;;;;;;;5.70;3.35;;;20.10;99.90;;;;;;6299970;22;20011;-71
2023/09/06 06:29:59;;;;;;;4.10;2.97;;;20.30;99.90;;;;;;6299515;22;20011;-72
2023/09/06 06:32:25;;;;;;;5.63;3.00;;;20.80;99.90;;;;;;6272502;22;20550;-74
2023/09/06 06:34:53;;;;;;;5.32;2.42;;;20.90;99.90;;;;;;6247432;22;20019;-76
2023/09/06 06:37:19;;;;;;;6.50;3.67;;;23.50;99.90;;;;;;6245582;22;20015;-72
2023/09/06 06:39:44;;;;;;;7.80;3.08;;;21.50;99.90;;;;;;6299353;22;20008;-73
2023/09/06 06:42:10;;;;;;;4.57;2.30;;;22.00;99.90;;;;;;6272600;22;20012;-73
2023/09/06 06:44:36;;;;;;;7.00;2.60;;;21.60;99.90;;;;;;6272254;22;20118;-73
2023/09/06 06:47:01;;;;;;;7.30;2.55;;;21.90;99.90;;;;;;6272874;22;20415;-73
2023/09/06 06:49:27;;;;;;;4.50;2.45;;;22.30;99.90;;;;;;6272156;22;20019;-74
2023/09/06 06:51:52;;;;;;;4.55;2.15;;;22.70;99.90;;;;;;6299865;22;20352;-74
2023/09/06 06:54:19;;;;;;;5.38;2.95;;;24.80;99.90;;;;;;6299582;22;20343;-74
2023/09/06 06:56:45;;;;;;;3.58;1.80;;;22.80;99.90;;;;;;6299939;22;20015;-74
2023/09/06 06:59:10;;;;;;;6.57;2.30;;;22.50;99.90;;;;;;6272288;22;20023;-74
2023/09/06 07:01:36;;;;;;;4.13;2.35;;;22.60;99.90;;;;;;6299497;22;20050;-73
2023/09/06 07:04:04;;;;;;;4.13;2.05;;;22.50;99.90;;;;;;6272276;22;20015;-73
2023/09/06 07:06:30;;;;;;;6.28;2.05;;;22.30;99.90;;;;;;6272400;22;20439;-74
2023/09/06 07:08:56;;;;;;;3.30;2.33;;;22.20;99.90;;;;;;6299999;22;20086;-74
2023/09/06 07:11:22;;;;;;;2.90;1.73;;;22.10;99.90;;;;;;6300374;22;20015;-74
2023/09/06 07:13:49;;;;;;;3.40;2.20;;;22.30;99.90;;;;;;6272108;22;20051;-73
2023/09/06 07:16:17;;;;;;;4.70;2.10;;;22.40;99.90;;;;;;6299795;22;20019;-73
2023/09/06 07:18:43;;;;;;;4.85;2.03;;;22.20;99.90;;;;;;6272156;22;20050;-73
2023/09/06 07:21:09;;;;;;;6.47;2.28;;;22.20;99.90;;;;;;6299605;22;20034;-73
2023/09/06 07:23:34;;;;;;;8.77;2.33;;;21.90;99.90;;;;;;6299639;22;20022;-73
2023/09/06 07:26:00;;;;;;;3.20;2.17;;;23.30;99.90;;;;;;6299895;22;20019;-73
2023/09/06 07:28:31;;;;;;;3.25;1.90;;;22.10;99.90;;;;;;6272233;22;20019;-73
2023/09/06 07:30:57;;;;;;;5.63;2.38;;;22.40;99.90;;;;;;6272455;22;20089;-73
2023/09/06 07:33:22;;;;;;;4.35;2.03;;;22.40;99.90;;;;;;6272067;22;20047;-73
2023/09/06 07:35:48;;;;;;;10.05;2.40;;;22.00;99.90;;;;;;6299748;22;20019;-73
2023/09/06 07:38:13;;;;;;;4.15;2.17;;;22.20;99.90;;;;;;6272305;22;20085;-73
2023/09/06 07:40:39;;;;;;;5.43;2.00;;;22.20;99.90;;;;;;6300047;22;20007;-73
2023/09/06 07:43:04;;;;;;;3.53;1.98;;;22.20;99.90;;;;;;6272062;22;20038;-73
2023/09/06 07:45:31;;;;;;;4.75;2.30;;;23.50;99.90;;;;;;6272131;22;20749;-73
2023/09/06 07:47:57;;;;;;;6.55;2.80;;;21.90;99.90;;;;;;6272637;22;20022;-72
2023/09/06 07:50:22;;;;;;;5.90;2.33;;;22.00;99.90;;;;;;6300643;22;20081;-72
2023/09/06 07:52:48;;;;;;;4.60;2.30;;;23.70;99.90;;;;;;6299826;22;20015;-72
2023/09/06 07:55:13;;;;;;;5.70;1.90;;;21.60;99.90;;;;;;6299891;22;20021;-72
2023/09/06 07:57:39;;;;;;;4.05;2.30;;;22.10;99.90;;;;;;6272991;22;20082;-72
2023/09/06 08:00:06;;;;;;;3.78;2.42;;;22.10;99.90;;;;;;6300165;22;20007;-72
2023/09/06 08:02:31;;;;;;;3.92;2.35;;;22.10;99.90;;;;;;6273023;22;20015;-72
2023/09/06 08:04:57;;;;;;;5.28;3.03;;;22.20;99.90;;;;;;6302078;22;20019;-72
2023/09/06 08:07:23;;;;;;;4.18;1.75;;;22.10;99.90;;;;;;6302906;22;20047;-72
2023/09/06 08:09:49;;;;;;;5.25;2.15;;;21.90;99.90;;;;;;6275479;22;20046;-72
2023/09/06 08:12:15;;;;;;;6.30;2.50;;;22.30;99.90;;;;;;6302626;22;20019;-72
2023/09/06 08:14:42;;;;;;;5.57;2.70;;;22.30;99.90;;;;;;6301835;22;20103;-72
2023/09/06 08:17:08;;;;;;;5.32;2.42;;;22.40;99.90;;;;;;6274287;22;20027;-72
2023/09/06 08:19:33;;;;;;;5.57;2.40;;;22.40;99.90;;;;;;6302623;22;20422;-72
2023/09/06 08:21:59;;;;;;;4.50;2.33;;;22.70;99.90;;;;;;6275061;22;20011;-72
2023/09/06 08:24:25;;;;;;;3.72;2.05;;;22.40;99.90;;;;;;6301626;22;20064;-71
2023/09/06 08:26:50;;;;;;;6.13;2.35;;;22.80;99.90;;;;;;6274641;22;20723;-72
2023/09/06 08:29:16;;;;;;;3.28;1.88;;;22.60;99.90;;;;;;6274781;22;20783;-72
2023/09/06 08:31:41;;;;;;;2.80;1.92;;;22.90;99.90;;;;;;6248466;22;20018;-72
2023/09/06 08:34:09;;;;;;;3.70;1.88;;;22.90;99.90;;;;;;6301866;22;20439;-72
2023/09/06 08:36:35;;;;;;;4.32;2.42;;;22.90;99.90;;;;;;6248453;22;20023;-72
2023/09/06 08:39:00;;;;;;;5.55;2.42;;;22.90;99.90;;;;;;6273443;22;20447;-72
2023/09/06 08:41:27;;;;;;;3.78;2.10;;;23.00;99.90;;;;;;6273952;22;20852;-72
2023/09/06 08:43:53;;;;;;;5.55;2.00;;;24.00;99.90;;;;;;6273918;22;20018;-72
2023/09/06 08:46:28;;;;;;;7.05;2.45;;;23.30;99.90;;;;;;6301607;22;20011;-72
2023/09/06 08:48:55;;;;;;;5.68;2.55;;;23.00;99.90;;;;;;6300977;22;20015;-72
2023/09/06 08:51:21;;;;;;;5.03;2.22;;;23.10;99.90;;;;;;6274104;22;20614;-72
2023/09/06 08:53:48;;;;;;;6.82;2.47;;;23.20;99.90;;;;;;6274148;22;20019;-72
2023/09/06 08:56:17;;;;;;;4.63;1.80;;;24.50;99.90;;;;;;6273959;22;20015;-72
2023/09/06 08:58:42;;;;;;;5.60;2.53;;;23.60;99.90;;;;;;6272839;22;20524;-73
2023/09/06 09:01:08;;;;;;;3.53;2.33;;;24.10;99.90;;;;;;6301152;22;20019;-72
2023/09/06 09:03:34;;;;;;;5.15;2.80;;;23.40;99.90;;;;;;6300980;22;20069;-72
2023/09/06 09:06:06;;;;;;;3.70;2.33;;;23.80;99.90;;;;;;6273578;22;20049;-72
2023/09/06 09:08:32;;;;;;;3.33;1.83;;;23.90;99.90;;;;;;6300793;22;20094;-72
2023/09/06 09:11:15;;;;;;;4.28;2.00;;;24.20;99.90;;;;;;6300714;22;20060;-72
2023/09/06 09:13:42;;;;;;;2.78;1.70;;;24.40;99.90;;;;;;6273069;22;20015;-72
2023/09/06 09:16:09;;;;;;;2.92;1.75;;;24.40;99.90;;;;;;6273252;22;20027;-72
2023/09/06 09:18:37;;;;;;;5.38;2.20;;;24.50;99.90;;;;;;6301018;22;20076;-72
2023/09/06 09:21:03;;;;;;;4.07;2.00;;;24.70;99.90;;;;;;6273415;22;20072;-72
2023/09/06 09:23:40;;;;;;;5.00;2.10;;;24.50;99.90;;;;;;6301037;22;20011;-72
2023/09/06 09:26:08;;;;;;;4.32;1.90;;;24.80;99.90;;;;;;6273806;22;20030;-72
2023/09/06 09:28:35;;;;;;;3.38;2.13;;;25.30;99.90;;;;;;6300450;22;20443;-72
2023/09/06 09:31:01;;;;;;;3.40;1.85;;;25.40;99.90;;;;;;6274130;22;20714;-72
2023/09/06 09:33:28;;;;;;;4.43;1.83;;;25.30;99.90;;;;;;6272219;22;20023;-72
2023/09/06 09:35:55;;;;;;;4.10;2.05;;;25.40;99.90;;;;;;6300201;22;20402;-72
2023/09/06 09:38:21;;;;;;;3.25;1.73;;;26.80;99.90;;;;;;6300270;22;20011;-73
2023/09/06 09:41:04;;;;;;;3.95;1.65;;;25.30;99.90;;;;;;6300707;22;20073;-73
2023/09/06 09:43:29;;;;;;;5.30;2.47;;;25.60;99.90;;;;;;6299828;22;20440;-73
2023/09/06 09:45:55;;;;;;;3.22;1.90;;;25.90;99.90;;;;;;6272550;22;20023;-73
2023/09/06 09:48:24;;;;;;;3.60;1.73;;;25.50;99.90;;;;;;6272584;22;20136;-72
2023/09/06 09:50:53;;;;;;;4.25;1.42;;;25.60;99.90;;;;;;6272347;22;20057;-72
2023/09/06 09:53:23;;;;;;;4.03;1.67;;;25.90;99.90;;;;;;6299791;22;20015;-72
2023/09/06 09:55:51;;;;;;;3.35;1.60;;;25.70;99.90;;;;;;6272714;22;20039;-72
2023/09/06 09:58:19;;;;;;;2.42;1.45;;;26.60;99.90;;;;;;6272252;22;20015;-72
2023/09/06 10:00:45;;;;;;;4.47;1.55;;;26.00;99.90;;;;;;6300084;22;20022;-73
2023/09/06 10:03:13;;;;;;;2.50;1.40;;;25.90;99.90;;;;;;6272378;22;20142;-72
2023/09/06 10:05:40;;;;;;;4.10;1.60;;;27.70;99.90;;;;;;6299932;22;20011;-73
2023/09/06 10:08:09;;;;;;;1.80;1.02;;;26.00;99.90;;;;;;6272689;22;20736;-72
2023/09/06 10:10:39;;;;;;;5.50;1.60;;;26.10;99.90;;;;;;6300011;22;20011;-72
2023/09/06 10:13:07;;;;;;;3.90;1.70;;;26.30;99.90;;;;;;6300139;22;20084;-73
2023/09/06 10:15:37;;;;;;;2.92;1.48;;;26.20;99.90;;;;;;6272486;22;20324;-72
2023/09/06 10:18:04;;;;;;;5.78;1.52;;;26.50;99.90;;;;;;6272143;22;20022;-72
2023/09/06 10:20:32;;;;;;;2.78;1.45;;;26.40;99.90;;;;;;6272542;22;20447;-72
2023/09/06 10:22:59;;;;;;;3.50;1.50;;;26.40;99.90;;;;;;6272424;22;20336;-73
2023/09/06 10:25:28;;;;;;;3.22;1.60;;;26.10;99.90;;;;;;6246780;22;20015;-72
2023/09/06 10:27:55;;;;;;;2.63;1.38;;;26.30;99.90;;;;;;6271885;22;20065;-72
2023/09/06 10:30:34;;;;;;;5.65;1.67;;;26.30;99.90;;;;;;6272478;22;20022;-73
2023/09/06 10:33:01;;;;;;;4.63;1.60;;;26.10;99.90;;;;;;6272217;22;20026;-72
2023/09/06 10:35:31;;;;;;;2.80;1.52;;;26.40;99.90;;;;;;6272177;22;20019;-73
2023/09/06 10:38:11;;;;;;;4.00;1.70;;;26.90;99.90;;;;;;6272300;22;20042;-72
2023/09/06 10:40:49;;;;;;;7.38;1.63;;;26.40;99.90;;;;;;6272587;22;20064;-72
2023/09/06 10:43:20;;;;;;;2.22;1.13;;;28.30;99.90;;;;;;6299497;22;20420;-73
2023/09/06 10:46:18;;;;;;;3.63;1.20;;;26.40;99.90;;;;;;6300306;22;20379;-72
2023/09/06 10:49:17;;;;;;;2.10;1.20;;;26.60;99.90;;;;;;6272607;22;20030;-72
2023/09/06 10:52:00;;;;;;;3.60;1.25;;;26.30;99.90;;;;;;6300248;22;20382;-72
2023/09/06 10:54:34;;;;;;;2.78;1.10;;;26.60;99.90;;;;;;6272705;22;20051;-72
2023/09/06 10:57:03;;;;;;;3.83;1.23;;;26.70;99.90;;;;;;6272635;22;20015;-72
2023/09/06 10:59:29;;;;;;;2.05;1.08;;;26.70;99.90;;;;;;6271743;22;20351;-72
2023/09/06 11:02:32;;;;;;;4.25;1.20;;;27.10;99.90;;;;;;6272352;22;20022;-73
2023/09/06 11:05:30;;;;;;;3.42;1.25;;;26.80;99.90;;;;;;6300162;22;20069;-72
2023/09/06 11:07:56;;;;;;;2.40;1.30;;;25.00;99.90;;;;;;6299567;22;20773;-73
2023/09/06 11:10:22;;;;;;;3.05;1.10;;;26.70;99.90;;;;;;6272534;22;20359;-73
2023/09/06 11:12:48;;;;;;;3.55;1.13;;;26.50;99.90;;;;;;6299872;22;20086;-72
2023/09/06 11:15:13;;;;;;;5.00;1.15;;;26.90;99.90;;;;;;6272567;22;20400;-72
2023/09/06 11:17:39;;;;;;;4.90;1.23;;;27.30;99.90;;;;;;6271664;22;20023;-72
2023/09/06 11:20:13;;;;;;;3.65;1.30;;;27.20;99.90;;;;;;6299514;22;20064;-72
2023/09/06 11:22:50;;;;;;;2.40;1.02;;;27.10;99.90;;;;;;6246197;22;20019;-72
2023/09/06 11:25:17;;;;;;;3.90;1.05;;;27.00;99.90;;;;;;6245824;22;20023;-73
2023/09/06 11:27:45;;;;;;;4.38;1.20;;;27.00;99.90;;;;;;6271806;22;20015;-72
2023/09/06 11:30:15;;;;;;;4.40;1.45;;;27.30;99.90;;;;;;6299201;22;20439;-72
2023/09/06 11:32:44;;;;;;;3.33;1.20;;;27.20;99.90;;;;;;6271888;22;20023;-73
2023/09/06 11:35:10;;;;;;;4.40;1.30;;;27.90;99.90;;;;;;6271371;22;20477;-72
2023/09/06 11:37:44;;;;;;;5.65;1.02;;;27.40;99.90;;;;;;6271648;22;20328;-73
2023/09/06 11:40:20;;;;;;;2.65;1.20;;;28.20;99.90;;;;;;6299714;22;20015;-72
2023/09/06 11:42:59;;;;;;;7.57;0.95;;;27.50;99.90;;;;;;6272031;22;20112;-73
2023/09/06 11:45:26;;;;;;;6.25;1.42;;;28.90;99.90;;;;;;6299904;22;20329;-72
2023/09/06 11:47:53;;;;;;;1.70;0.70;;;27.50;99.90;;;;;;6271937;22;20026;-72
2023/09/06 11:50:23;;;;;;;4.22;1.27;;;27.50;99.90;;;;;;6246461;22;20019;-72
2023/09/06 11:52:50;;;;;;;2.00;0.98;;;27.50;99.90;;;;;;6272176;22;20015;-72
2023/09/06 11:55:17;;;;;;;2.95;1.10;;;27.70;99.90;;;;;;6271814;22;20023;-72
2023/09/06 11:57:50;;;;;;;4.32;1.25;;;27.70;99.90;;;;;;6299602;22;20011;-73
2023/09/06 12:00:28;;;;;;;2.53;0.82;;;27.50;99.90;;;;;;6272106;22;20443;-72
2023/09/06 12:03:16;;;;;;;3.42;0.98;;;27.90;99.90;;;;;;6299482;22;20133;-72
2023/09/06 12:05:49;;;;;;;2.33;1.00;;;27.70;99.90;;;;;;6272201;22;20015;-72
2023/09/06 12:08:20;;;;;;;2.17;0.90;;;28.20;99.90;;;;;;6299070;22;20015;-72
2023/09/06 12:10:53;;;;;;;2.30;0.60;;;28.90;99.90;;;;;;6271575;22;20026;-72
2023/09/06 12:13:29;;;;;;;2.72;0.95;;;28.00;99.90;;;;;;6271453;22;20026;-73
2023/09/06 12:15:59;;;;;;;2.38;1.05;;;27.60;99.90;;;;;;6245708;22;20019;-72
2023/09/06 12:18:27;;;;;;;2.80;0.93;;;28.20;99.90;;;;;;6299046;22;20478;-73
2023/09/06 12:20:53;;;;;;;4.07;0.98;;;27.90;99.90;;;;;;6299342;22;20011;-73
2023/09/06 12:23:23;;;;;;;2.80;0.95;;;29.10;99.90;;;;;;6271754;22;20018;-72
2023/09/06 12:25:48;;;;;;;2.88;0.60;;;28.20;99.90;;;;;;6271553;22;20838;-73
2023/09/06 12:28:14;;;;;;;1.63;0.80;;;27.90;99.90;;;;;;6271248;22;20015;-72
2023/09/06 12:30:39;;;;;;;4.75;0.93;;;28.10;99.90;;;;;;6271655;22;20023;-73
2023/09/06 12:33:05;;;;;;;2.40;0.88;;;28.00;99.90;;;;;;6271663;22;20050;-73
2023/09/06 12:35:38;;;;;;;4.05;0.93;;;27.90;99.90;;;;;;6298911;22;20023;-73
2023/09/06 12:38:07;;;;;;;2.50;1.00;;;28.10;99.90;;;;;;6271924;22;20067;-72
2023/09/06 12:40:33;;;;;;;2.67;0.95;;;28.10;99.90;;;;;;6270620;22;20023;-73
2023/09/06 12:42:59;;;;;;;1.92;0.98;;;28.20;99.90;;;;;;6295019;22;20545;-75
2023/09/06 12:45:27;;;;;;;4.57;1.20;;;28.20;99.90;;;;;;6269188;22;20019;-75
2023/09/06 12:48:12;;;;;;;;;;;;;;;;;;;;;
2023/09/06 12:58:08;;;;;;;2.15;0.80;;;29.20;99.90;;;;;;6292125;22;20093;-72
2023/09/06 13:18:52;;;;;;;2.42;0.80;;;28.80;99.90;;;;;;6309269;22;20734;-72
2023/09/06 13:30:11;;;;;;;;;;;;;;;;;;;;;
2023/09/06 14:03:21;;;;;;;;;;;;;;;;;;;;;
2023/09/06 14:06:39;;;;;;;;;;;;;;;;;;;;;
2023/09/06 14:13:34;;;;;;;4.38;1.40;;;29.30;99.90;;;;;;5977746;23;20019;-74
2023/09/06 14:22:56;;;;;;;6.22;1.40;;;29.10;99.90;;;;;;5914227;23;20114;-73
2023/09/06 14:26:14;;;;;;;1.90;1.02;;;27.70;99.90;;;;;;6018168;23;20019;-73
2023/09/06 14:29:57;;;;;;;;;;;;;;;;;;;;;
2023/09/06 14:41:31;;;;;;;2.67;0.90;;;28.80;99.90;;;;;;5896820;24;20029;-74
2023/09/06 14:44:56;;;;;;;;;;;;;;;;;;;;;
2023/09/06 15:17:20;;;;;;;;;;;;;;;;;;;;;
2023/09/06 15:24:04;;;;;;;;;;;;;;;;;;;;;
2023/09/06 15:26:57;;;;;;;2.53;0.80;;;31.30;99.90;;;;;;5067385;28;20045;-70